sensor_id;sensor_type;location;lat;lon;timestamp;temperature;humidity
54461;DHT22;69977;49.414;11.010;2023-08-07T00:00:24;13.00;99.90
54461;DHT22;69977;49.414;11.010;2023-08-07T00:02:49;13.00;99.90
54461;DHT22;69977;49.414;11.010;2023-08-07T00:05:15;13.00;99.90
54461;DHT22;69977;49.414;11.010;2023-08-07T00:07:44;13.00;99.90
54461;DHT22;69977;49.414;11.010;2023-08-07T00:10:10;13.10;99.90
54461;DHT22;69977;49.414;11.010;2023-08-07T00:12:36;13.00;99.90
54461;DHT22;69977;49.414;11.010;2023-08-07T00:15:03;12.90;99.90
54461;DHT22;69977;49.414;11.010;2023-08-07T00:17:29;12.90;99.90
54461;DHT22;69977;49.414;11.010;2023-08-07T00:19:55;12.90;99.90
54461;DHT22;69977;49.414;11.010;2023-08-07T00:22:20;12.80;99.90
54461;DHT22;69977;49.414;11.010;2023-08-07T00:24:46;12.90;99.90
54461;DHT22;69977;49.414;11.010;2023-08-07T00:27:12;12.90;99.90
54461;DHT22;69977;49.414;11.010;2023-08-07T00:29:38;12.80;99.90
54461;DHT22;69977;49.414;11.010;2023-08-07T00:32:05;12.80;99.90
54461;DHT22;69977;49.414;11.010;2023-08-07T00:34:31;12.80;99.90
54461;DHT22;69977;49.414;11.010;2023-08-07T00:36:56;12.70;99.90
54461;DHT22;69977;49.414;11.010;2023-08-07T00:39:22;12.70;99.90
54461;DHT22;69977;49.414;11.010;2023-08-07T00:41:50;12.70;99.90
54461;DHT22;69977;49.414;11.010;2023-08-07T00:44:16;12.60;99.90
54461;DHT22;69977;49.414;11.010;2023-08-07T00:46:42;12.70;99.90
54461;DHT22;69977;49.414;11.010;2023-08-07T00:49:09;12.80;99.90
54461;DHT22;69977;49.414;11.010;2023-08-07T00:51:38;12.60;99.90
54461;DHT22;69977;49.414;11.010;2023-08-07T00:54:05;12.70;99.90
54461;DHT22;69977;49.414;11.010;2023-08-07T00:56:32;12.70;99.90
54461;DHT22;69977;49.414;11.010;2023-08-07T00:59:01;12.60;99.90
54461;DHT22;69977;49.414;11.010;2023-08-07T01:01:27;12.60;99.90
54461;DHT22;69977;49.414;11.010;2023-08-07T01:03:54;12.60;99.90
54461;DHT22;69977;49.414;11.010;2023-08-07T01:06:20;12.60;99.90
54461;DHT22;69977;49.414;11.010;2023-08-07T01:08:46;12.70;99.90
54461;DHT22;69977;49.414;11.010;2023-08-07T01:16:47;12.50;99.90
54461;DHT22;69977;49.414;11.010;2023-08-07T01:19:34;12.60;99.90
54461;DHT22;69977;49.414;11.010;2023-08-07T01:22:10;12.60;99.90
54461;DHT22;69977;49.414;11.010;2023-08-07T01:24:39;12.50;99.90
54461;DHT22;69977;49.414;11.010;2023-08-07T01:30:11;12.50;99.90
54461;DHT22;69977;49.414;11.010;2023-08-07T01:35:14;12.40;99.90
54461;DHT22;69977;49.414;11.010;2023-08-07T01:37:42;12.50;99.90
54461;DHT22;69977;49.414;11.010;2023-08-07T01:40:09;12.50;99.90
54461;DHT22;69977;49.414;11.010;2023-08-07T01:42:36;12.50;99.90
54461;DHT22;69977;49.414;11.010;2023-08-07T01:45:04;12.50;99.90
54461;DHT22;69977;49.414;11.010;2023-08-07T01:47:30;12.50;99.90
54461;DHT22;69977;49.414;11.010;2023-08-07T01:49:56;12.50;99.90
54461;DHT22;69977;49.414;11.010;2023-08-07T01:52:22;12.50;99.90
54461;DHT22;69977;49.414;11.010;2023-08-07T01:54:48;12.50;99.90
54461;DHT22;69977;49.414;11.010;2023-08-07T01:57:14;12.60;99.90
54461;DHT22;69977;49.414;11.010;2023-08-07T01:59:40;12.50;99.90
54461;DHT22;69977;49.414;11.010;2023-08-07T02:02:06;12.50;99.90
54461;DHT22;69977;49.414;11.010;2023-08-07T02:04:31;12.50;99.90
54461;DHT22;69977;49.414;11.010;2023-08-07T02:06:57;12.50;99.90
54461;DHT22;69977;49.414;11.010;2023-08-07T02:09:23;12.50;99.90
54461;DHT22;69977;49.414;11.010;2023-08-07T02:11:49;12.40;99.90
54461;DHT22;69977;49.414;11.010;2023-08-07T02:14:14;12.40;99.90
54461;DHT22;69977;49.414;11.010;2023-08-07T02:16:40;12.50;99.90
54461;DHT22;69977;49.414;11.010;2023-08-07T02:19:07;12.30;99.90
54461;DHT22;69977;49.414;11.010;2023-08-07T02:21:32;12.30;99.90
54461;DHT22;69977;49.414;11.010;2023-08-07T02:23:58;12.50;99.90
54461;DHT22;69977;49.414;11.010;2023-08-07T02:26:24;12.40;99.90
54461;DHT22;69977;49.414;11.010;2023-08-07T02:28:50;12.40;99.90
54461;DHT22;69977;49.414;11.010;2023-08-07T02:31:15;12.40;99.90
54461;DHT22;69977;49.414;11.010;2023-08-07T02:33:41;12.50;99.90
54461;DHT22;69977;49.414;11.010;2023-08-07T02:36:07;12.40;99.90
54461;DHT22;69977;49.414;11.010;2023-08-07T02:38:33;12.40;99.90
54461;DHT22;69977;49.414;11.010;2023-08-07T02:40:59;12.40;99.90
54461;DHT22;69977;49.414;11.010;2023-08-07T02:43:25;12.40;99.90
54461;DHT22;69977;49.414;11.010;2023-08-07T02:45:52;12.40;99.90
54461;DHT22;69977;49.414;11.010;2023-08-07T02:48:18;12.40;99.90
54461;DHT22;69977;49.414;11.010;2023-08-07T02:50:45;12.40;99.90
54461;DHT22;69977;49.414;11.010;2023-08-07T02:53:11;12.40;99.90
54461;DHT22;69977;49.414;11.010;2023-08-07T02:55:37;12.40;99.90
54461;DHT22;69977;49.414;11.010;2023-08-07T02:58:03;12.40;99.90
54461;DHT22;69977;49.414;11.010;2023-08-07T03:00:28;12.40;99.90
54461;DHT22;69977;49.414;11.010;2023-08-07T03:02:54;12.30;99.90
54461;DHT22;69977;49.414;11.010;2023-08-07T03:05:20;12.40;99.90
54461;DHT22;69977;49.414;11.010;2023-08-07T03:07:46;12.40;99.90
54461;DHT22;69977;49.414;11.010;2023-08-07T03:10:11;12.40;99.90
54461;DHT22;69977;49.414;11.010;2023-08-07T03:12:37;12.50;99.90
54461;DHT22;69977;49.414;11.010;2023-08-07T03:15:05;12.30;99.90
54461;DHT22;69977;49.414;11.010;2023-08-07T03:17:31;12.30;99.90
54461;DHT22;69977;49.414;11.010;2023-08-07T03:19:57;12.30;99.90
54461;DHT22;69977;49.414;11.010;2023-08-07T03:22:23;12.40;99.90
54461;DHT22;69977;49.414;11.010;2023-08-07T03:24:49;12.40;99.90
54461;DHT22;69977;49.414;11.010;2023-08-07T03:27:15;12.30;99.90
54461;DHT22;69977;49.414;11.010;2023-08-07T03:29:41;12.30;99.90
54461;DHT22;69977;49.414;11.010;2023-08-07T03:32:08;12.40;99.90
54461;DHT22;69977;49.414;11.010;2023-08-07T03:34:35;12.30;99.90
54461;DHT22;69977;49.414;11.010;2023-08-07T03:37:01;12.30;99.90
54461;DHT22;69977;49.414;11.010;2023-08-07T03:39:27;12.30;99.90
54461;DHT22;69977;49.414;11.010;2023-08-07T03:41:52;12.20;99.90
54461;DHT22;69977;49.414;11.010;2023-08-07T03:44:18;12.20;99.90
54461;DHT22;69977;49.414;11.010;2023-08-07T03:46:44;12.30;99.90
54461;DHT22;69977;49.414;11.010;2023-08-07T03:49:11;12.30;99.90
54461;DHT22;69977;49.414;11.010;2023-08-07T03:51:36;12.30;99.90
54461;DHT22;69977;49.414;11.010;2023-08-07T03:54:02;12.30;99.90
54461;DHT22;69977;49.414;11.010;2023-08-07T03:56:28;12.30;99.90
54461;DHT22;69977;49.414;11.010;2023-08-07T03:58:58;12.20;99.90
54461;DHT22;69977;49.414;11.010;2023-08-07T04:01:24;12.30;99.90
54461;DHT22;69977;49.414;11.010;2023-08-07T04:03:50;12.30;99.90
54461;DHT22;69977;49.414;11.010;2023-08-07T04:06:16;12.30;99.90
54461;DHT22;69977;49.414;11.010;2023-08-07T04:08:44;12.30;99.90
54461;DHT22;69977;49.414;11.010;2023-08-07T04:11:10;12.20;99.90
54461;DHT22;69977;49.414;11.010;2023-08-07T04:13:37;12.20;99.90
54461;DHT22;69977;49.414;11.010;2023-08-07T04:16:03;12.20;99.90
54461;DHT22;69977;49.414;11.010;2023-08-07T04:18:30;12.10;99.90
54461;DHT22;69977;49.414;11.010;2023-08-07T04:20:57;12.20;99.90
54461;DHT22;69977;49.414;11.010;2023-08-07T04:23:23;12.20;99.90
54461;DHT22;69977;49.414;11.010;2023-08-07T04:25:50;12.20;99.90
54461;DHT22;69977;49.414;11.010;2023-08-07T04:28:16;12.20;99.90
54461;DHT22;69977;49.414;11.010;2023-08-07T04:30:43;12.10;99.90
54461;DHT22;69977;49.414;11.010;2023-08-07T04:33:09;12.10;99.90
54461;DHT22;69977;49.414;11.010;2023-08-07T04:35:35;12.20;99.90
54461;DHT22;69977;49.414;11.010;2023-08-07T04:38:02;12.20;99.90
54461;DHT22;69977;49.414;11.010;2023-08-07T04:40:28;12.20;99.90
54461;DHT22;69977;49.414;11.010;2023-08-07T04:42:54;12.00;99.90
54461;DHT22;69977;49.414;11.010;2023-08-07T04:45:20;12.10;99.90
54461;DHT22;69977;49.414;11.010;2023-08-07T04:47:46;12.10;99.90
54461;DHT22;69977;49.414;11.010;2023-08-07T04:50:12;12.00;99.90
54461;DHT22;69977;49.414;11.010;2023-08-07T04:52:38;12.20;99.90
54461;DHT22;69977;49.414;11.010;2023-08-07T04:55:04;12.20;99.90
54461;DHT22;69977;49.414;11.010;2023-08-07T04:57:30;12.20;99.90
54461;DHT22;69977;49.414;11.010;2023-08-07T04:59:56;12.20;99.90
54461;DHT22;69977;49.414;11.010;2023-08-07T05:02:22;12.10;99.90
54461;DHT22;69977;49.414;11.010;2023-08-07T05:04:48;12.10;99.90
54461;DHT22;69977;49.414;11.010;2023-08-07T05:07:14;12.10;99.90
54461;DHT22;69977;49.414;11.010;2023-08-07T05:09:40;12.10;99.90
54461;DHT22;69977;49.414;11.010;2023-08-07T05:12:06;12.00;99.90
54461;DHT22;69977;49.414;11.010;2023-08-07T05:14:32;12.10;99.90
54461;DHT22;69977;49.414;11.010;2023-08-07T05:16:58;12.10;99.90
54461;DHT22;69977;49.414;11.010;2023-08-07T05:19:25;12.10;99.90
54461;DHT22;69977;49.414;11.010;2023-08-07T05:21:51;12.10;99.90
54461;DHT22;69977;49.414;11.010;2023-08-07T05:24:17;12.00;99.90
54461;DHT22;69977;49.414;11.010;2023-08-07T05:26:44;12.00;99.90
54461;DHT22;69977;49.414;11.010;2023-08-07T05:29:10;12.10;99.90
54461;DHT22;69977;49.414;11.010;2023-08-07T05:31:35;12.10;99.90
54461;DHT22;69977;49.414;11.010;2023-08-07T05:34:01;12.10;99.90
54461;DHT22;69977;49.414;11.010;2023-08-07T05:36:27;12.00;99.90
54461;DHT22;69977;49.414;11.010;2023-08-07T05:38:54;12.10;99.90
54461;DHT22;69977;49.414;11.010;2023-08-07T05:41:20;12.10;99.90
54461;DHT22;69977;49.414;11.010;2023-08-07T05:43:45;12.10;99.90
54461;DHT22;69977;49.414;11.010;2023-08-07T05:46:11;12.10;99.90
54461;DHT22;69977;49.414;11.010;2023-08-07T05:48:37;12.20;99.90
54461;DHT22;69977;49.414;11.010;2023-08-07T05:51:03;12.20;99.90
54461;DHT22;69977;49.414;11.010;2023-08-07T05:53:29;12.10;99.90
54461;DHT22;69977;49.414;11.010;2023-08-07T05:55:55;12.00;99.90
54461;DHT22;69977;49.414;11.010;2023-08-07T05:58:21;12.00;99.90
54461;DHT22;69977;49.414;11.010;2023-08-07T06:00:47;12.10;99.90
54461;DHT22;69977;49.414;11.010;2023-08-07T06:03:13;12.20;99.90
54461;DHT22;69977;49.414;11.010;2023-08-07T06:05:38;12.20;99.90
54461;DHT22;69977;49.414;11.010;2023-08-07T06:08:04;12.30;99.90
54461;DHT22;69977;49.414;11.010;2023-08-07T06:10:30;12.30;99.90
54461;DHT22;69977;49.414;11.010;2023-08-07T06:12:56;12.40;99.90
54461;DHT22;69977;49.414;11.010;2023-08-07T06:15:22;12.30;99.90
54461;DHT22;69977;49.414;11.010;2023-08-07T06:17:47;12.30;99.90
54461;DHT22;69977;49.414;11.010;2023-08-07T06:20:13;12.20;99.90
54461;DHT22;69977;49.414;11.010;2023-08-07T06:22:41;12.40;99.90
54461;DHT22;69977;49.414;11.010;2023-08-07T06:25:07;12.50;99.90
54461;DHT22;69977;49.414;11.010;2023-08-07T06:27:34;12.40;99.90
54461;DHT22;69977;49.414;11.010;2023-08-07T06:30:00;12.40;99.90
54461;DHT22;69977;49.414;11.010;2023-08-07T06:32:26;12.50;99.90
54461;DHT22;69977;49.414;11.010;2023-08-07T06:34:52;12.40;99.90
54461;DHT22;69977;49.414;11.010;2023-08-07T06:37:19;12.40;99.90
54461;DHT22;69977;49.414;11.010;2023-08-07T06:39:44;12.40;99.90
54461;DHT22;69977;49.414;11.010;2023-08-07T06:42:12;12.40;99.90
54461;DHT22;69977;49.414;11.010;2023-08-07T06:44:41;12.40;99.90
54461;DHT22;69977;49.414;11.010;2023-08-07T06:47:07;12.40;99.90
54461;DHT22;69977;49.414;11.010;2023-08-07T06:49:33;12.40;99.90
54461;DHT22;69977;49.414;11.010;2023-08-07T06:52:00;12.40;99.90
54461;DHT22;69977;49.414;11.010;2023-08-07T06:54:26;12.40;99.90
54461;DHT22;69977;49.414;11.010;2023-08-07T06:56:51;12.40;99.90
54461;DHT22;69977;49.414;11.010;2023-08-07T06:59:17;12.50;99.90
54461;DHT22;69977;49.414;11.010;2023-08-07T07:01:43;12.30;99.90
54461;DHT22;69977;49.414;11.010;2023-08-07T07:04:09;12.40;99.90
54461;DHT22;69977;49.414;11.010;2023-08-07T07:06:37;12.50;99.90
54461;DHT22;69977;49.414;11.010;2023-08-07T07:09:03;12.50;99.90
54461;DHT22;69977;49.414;11.010;2023-08-07T07:11:29;12.50;99.90
54461;DHT22;69977;49.414;11.010;2023-08-07T07:13:55;12.50;99.90
54461;DHT22;69977;49.414;11.010;2023-08-07T07:16:21;12.50;99.90
54461;DHT22;69977;49.414;11.010;2023-08-07T07:18:50;12.50;99.90
54461;DHT22;69977;49.414;11.010;2023-08-07T07:21:17;12.60;99.90
54461;DHT22;69977;49.414;11.010;2023-08-07T07:23:43;12.50;99.90
54461;DHT22;69977;49.414;11.010;2023-08-07T07:26:09;12.60;99.90
54461;DHT22;69977;49.414;11.010;2023-08-07T07:28:34;12.50;99.90
54461;DHT22;69977;49.414;11.010;2023-08-07T07:31:00;12.60;99.90
54461;DHT22;69977;49.414;11.010;2023-08-07T07:33:26;12.50;99.90
54461;DHT22;69977;49.414;11.010;2023-08-07T07:35:53;12.50;99.90
54461;DHT22;69977;49.414;11.010;2023-08-07T07:38:19;12.50;99.90
54461;DHT22;69977;49.414;11.010;2023-08-07T07:40:44;12.60;99.90
54461;DHT22;69977;49.414;11.010;2023-08-07T07:43:10;12.60;99.90
54461;DHT22;69977;49.414;11.010;2023-08-07T07:45:36;12.70;99.90
54461;DHT22;69977;49.414;11.010;2023-08-07T07:48:05;12.80;99.90
54461;DHT22;69977;49.414;11.010;2023-08-07T07:50:34;12.80;99.90
54461;DHT22;69977;49.414;11.010;2023-08-07T07:52:59;12.90;99.90
54461;DHT22;69977;49.414;11.010;2023-08-07T07:55:25;12.90;99.90
54461;DHT22;69977;49.414;11.010;2023-08-07T07:57:51;13.00;99.90
54461;DHT22;69977;49.414;11.010;2023-08-07T08:00:17;12.90;99.90
54461;DHT22;69977;49.414;11.010;2023-08-07T08:02:45;13.00;99.90
54461;DHT22;69977;49.414;11.010;2023-08-07T08:05:12;13.00;99.90
54461;DHT22;69977;49.414;11.010;2023-08-07T08:07:38;13.10;99.90
54461;DHT22;69977;49.414;11.010;2023-08-07T08:10:07;13.00;99.90
54461;DHT22;69977;49.414;11.010;2023-08-07T08:12:34;12.90;99.90
54461;DHT22;69977;49.414;11.010;2023-08-07T08:15:01;13.00;99.90
54461;DHT22;69977;49.414;11.010;2023-08-07T08:17:26;12.90;99.90
54461;DHT22;69977;49.414;11.010;2023-08-07T08:19:52;12.80;99.90
54461;DHT22;69977;49.414;11.010;2023-08-07T08:22:18;12.80;99.90
54461;DHT22;69977;49.414;11.010;2023-08-07T08:24:44;12.80;99.90
54461;DHT22;69977;49.414;11.010;2023-08-07T08:27:10;12.80;99.90
54461;DHT22;69977;49.414;11.010;2023-08-07T08:29:36;12.80;99.90
54461;DHT22;69977;49.414;11.010;2023-08-07T08:32:02;12.90;99.90
54461;DHT22;69977;49.414;11.010;2023-08-07T08:34:27;12.80;99.90
54461;DHT22;69977;49.414;11.010;2023-08-07T08:36:53;12.80;99.90
54461;DHT22;69977;49.414;11.010;2023-08-07T08:39:19;12.90;99.90
54461;DHT22;69977;49.414;11.010;2023-08-07T08:41:50;13.00;99.90
54461;DHT22;69977;49.414;11.010;2023-08-07T08:44:17;13.00;99.90
54461;DHT22;69977;49.414;11.010;2023-08-07T08:46:48;13.00;99.90
54461;DHT22;69977;49.414;11.010;2023-08-07T08:49:16;13.00;99.90
54461;DHT22;69977;49.414;11.010;2023-08-07T08:51:46;12.90;99.90
54461;DHT22;69977;49.414;11.010;2023-08-07T08:54:13;13.00;99.90
54461;DHT22;69977;49.414;11.010;2023-08-07T08:56:39;13.10;99.90
54461;DHT22;69977;49.414;11.010;2023-08-07T08:59:05;13.10;99.90
54461;DHT22;69977;49.414;11.010;2023-08-07T09:01:31;13.20;99.90
54461;DHT22;69977;49.414;11.010;2023-08-07T09:03:58;13.20;99.90
54461;DHT22;69977;49.414;11.010;2023-08-07T09:06:26;13.10;99.90
54461;DHT22;69977;49.414;11.010;2023-08-07T09:08:53;13.10;99.90
54461;DHT22;69977;49.414;11.010;2023-08-07T09:11:20;12.90;99.90
54461;DHT22;69977;49.414;11.010;2023-08-07T09:13:48;12.90;99.90
54461;DHT22;69977;49.414;11.010;2023-08-07T09:16:15;12.90;99.90
54461;DHT22;69977;49.414;11.010;2023-08-07T09:18:42;12.90;99.90
54461;DHT22;69977;49.414;11.010;2023-08-07T09:21:08;13.00;99.90
54461;DHT22;69977;49.414;11.010;2023-08-07T09:23:34;12.90;99.90
54461;DHT22;69977;49.414;11.010;2023-08-07T09:26:01;13.00;99.90
54461;DHT22;69977;49.414;11.010;2023-08-07T09:28:28;13.10;99.90
54461;DHT22;69977;49.414;11.010;2023-08-07T09:30:55;13.20;99.90
54461;DHT22;69977;49.414;11.010;2023-08-07T09:33:28;13.10;99.90
54461;DHT22;69977;49.414;11.010;2023-08-07T09:35:59;13.20;99.90
54461;DHT22;69977;49.414;11.010;2023-08-07T09:38:29;13.20;99.90
54461;DHT22;69977;49.414;11.010;2023-08-07T09:41:00;13.20;99.90
54461;DHT22;69977;49.414;11.010;2023-08-07T09:43:28;13.20;99.90
54461;DHT22;69977;49.414;11.010;2023-08-07T09:46:02;13.20;99.90
54461;DHT22;69977;49.414;11.010;2023-08-07T09:48:28;13.30;99.90
54461;DHT22;69977;49.414;11.010;2023-08-07T09:50:54;13.30;99.90
54461;DHT22;69977;49.414;11.010;2023-08-07T09:53:27;13.30;99.90
54461;DHT22;69977;49.414;11.010;2023-08-07T09:55:55;13.40;99.90
54461;DHT22;69977;49.414;11.010;2023-08-07T09:58:23;13.30;99.90
54461;DHT22;69977;49.414;11.010;2023-08-07T10:00:50;13.30;99.90
54461;DHT22;69977;49.414;11.010;2023-08-07T10:03:19;13.40;99.90
54461;DHT22;69977;49.414;11.010;2023-08-07T10:05:45;13.40;99.90
54461;DHT22;69977;49.414;11.010;2023-08-07T10:08:12;13.40;99.90
54461;DHT22;69977;49.414;11.010;2023-08-07T10:10:38;13.50;99.90
54461;DHT22;69977;49.414;11.010;2023-08-07T10:13:04;13.60;99.90
54461;DHT22;69977;49.414;11.010;2023-08-07T10:15:32;13.50;99.90
54461;DHT22;69977;49.414;11.010;2023-08-07T10:17:58;13.60;99.90
54461;DHT22;69977;49.414;11.010;2023-08-07T10:20:28;13.40;99.90
54461;DHT22;69977;49.414;11.010;2023-08-07T10:23:07;13.30;99.90
54461;DHT22;69977;49.414;11.010;2023-08-07T10:25:35;13.30;99.90
54461;DHT22;69977;49.414;11.010;2023-08-07T10:28:05;13.40;99.90
54461;DHT22;69977;49.414;11.010;2023-08-07T10:30:32;13.60;99.90
54461;DHT22;69977;49.414;11.010;2023-08-07T10:32:59;13.50;99.90
54461;DHT22;69977;49.414;11.010;2023-08-07T10:35:33;13.50;99.90
54461;DHT22;69977;49.414;11.010;2023-08-07T10:38:07;13.60;99.90
54461;DHT22;69977;49.414;11.010;2023-08-07T10:40:34;13.70;99.90
54461;DHT22;69977;49.414;11.010;2023-08-07T10:43:13;13.70;99.90
54461;DHT22;69977;49.414;11.010;2023-08-07T10:45:39;13.60;99.90
54461;DHT22;69977;49.414;11.010;2023-08-07T10:48:10;13.60;99.90
54461;DHT22;69977;49.414;11.010;2023-08-07T10:51:18;13.90;99.90
54461;DHT22;69977;49.414;11.010;2023-08-07T10:53:47;13.90;99.90
54461;DHT22;69977;49.414;11.010;2023-08-07T10:56:17;13.90;99.90
54461;DHT22;69977;49.414;11.010;2023-08-07T10:58:49;13.90;99.90
54461;DHT22;69977;49.414;11.010;2023-08-07T11:01:39;14.00;99.90
54461;DHT22;69977;49.414;11.010;2023-08-07T11:04:07;13.90;99.90
54461;DHT22;69977;49.414;11.010;2023-08-07T11:06:34;14.00;99.90
54461;DHT22;69977;49.414;11.010;2023-08-07T11:09:02;14.20;99.90
54461;DHT22;69977;49.414;11.010;2023-08-07T11:11:29;14.10;99.90
54461;DHT22;69977;49.414;11.010;2023-08-07T11:13:55;14.20;99.90
54461;DHT22;69977;49.414;11.010;2023-08-07T11:16:21;14.30;99.90
54461;DHT22;69977;49.414;11.010;2023-08-07T11:18:49;14.20;99.90
54461;DHT22;69977;49.414;11.010;2023-08-07T11:21:15;14.20;99.90
54461;DHT22;69977;49.414;11.010;2023-08-07T11:23:41;14.20;99.90
54461;DHT22;69977;49.414;11.010;2023-08-07T11:26:08;14.10;99.90
54461;DHT22;69977;49.414;11.010;2023-08-07T11:28:34;14.00;99.90
54461;DHT22;69977;49.414;11.010;2023-08-07T11:31:00;14.00;99.90
54461;DHT22;69977;49.414;11.010;2023-08-07T11:33:28;14.10;99.90
54461;DHT22;69977;49.414;11.010;2023-08-07T11:35:54;14.10;99.90
54461;DHT22;69977;49.414;11.010;2023-08-07T11:38:37;14.20;99.90
54461;DHT22;69977;49.414;11.010;2023-08-07T11:41:04;14.10;99.90
54461;DHT22;69977;49.414;11.010;2023-08-07T11:43:31;14.20;99.90
54461;DHT22;69977;49.414;11.010;2023-08-07T11:45:58;14.30;99.90
54461;DHT22;69977;49.414;11.010;2023-08-07T11:48:26;14.40;99.90
54461;DHT22;69977;49.414;11.010;2023-08-07T11:50:54;14.40;99.90
54461;DHT22;69977;49.414;11.010;2023-08-07T11:53:21;14.50;99.90
54461;DHT22;69977;49.414;11.010;2023-08-07T11:56:08;14.30;99.90
54461;DHT22;69977;49.414;11.010;2023-08-07T11:58:44;14.50;99.90
54461;DHT22;69977;49.414;11.010;2023-08-07T12:01:24;14.60;99.90
54461;DHT22;69977;49.414;11.010;2023-08-07T12:04:17;14.70;99.90
54461;DHT22;69977;49.414;11.010;2023-08-07T12:06:56;14.80;99.90
54461;DHT22;69977;49.414;11.010;2023-08-07T12:09:22;14.90;99.90
54461;DHT22;69977;49.414;11.010;2023-08-07T12:11:47;14.80;99.90
54461;DHT22;69977;49.414;11.010;2023-08-07T12:14:14;14.70;99.90
54461;DHT22;69977;49.414;11.010;2023-08-07T12:16:44;14.70;99.90
54461;DHT22;69977;49.414;11.010;2023-08-07T12:19:11;14.60;99.90
54461;DHT22;69977;49.414;11.010;2023-08-07T12:21:36;14.70;99.90
54461;DHT22;69977;49.414;11.010;2023-08-07T12:24:06;14.70;99.90
54461;DHT22;69977;49.414;11.010;2023-08-07T12:26:32;14.80;99.90
54461;DHT22;69977;49.414;11.010;2023-08-07T12:28:58;14.70;99.90
54461;DHT22;69977;49.414;11.010;2023-08-07T12:31:24;14.80;99.90
